Time,TemperatureF,DewpointF,PressureIn,WindDirection,WindDirectionDegrees,WindSpeedMPH,WindSpeedGustMPH,Humidity,HourlyPrecipIn,Conditions,Clouds,dailyrainin,SoftwareType,DateUTC
2013-09-20 00:08:00,63.8,55.0,30.06,WNW,289,4.0,6.0,72,0.00,,,0.00,weatherlink.com 1.10,2013-09-20 04:08:00,
2013-09-20 00:23:00,63.2,54.0,30.05,WNW,288,3.0,5.0,73,0.00,,,0.00,weatherlink.com 1.10,2013-09-20 04:23:00,
2013-09-20 00:38:00,62.9,55.0,30.05,WNW,285,5.0,6.0,74,0.00,,,0.00,weatherlink.com 1.10,2013-09-20 04:38:00,
2013-09-20 00:53:00,62.5,55.0,30.05,West,278,2.0,6.0,75,0.00,,,0.00,weatherlink.com 1.10,2013-09-20 04:53:00,
2013-09-20 01:08:00,62.0,54.0,30.05,West,279,3.0,5.0,76,0.00,,,0.00,weatherlink.com 1.10,2013-09-20 05:08:00,
2013-09-20 01:24:00,61.3,54.0,30.05,WNW,282,2.0,4.0,77,0.00,,,0.00,weatherlink.com 1.10,2013-09-20 05:24:00,
2013-09-20 01:39:00,60.8,54.0,30.05,West,279,2.0,5.0,79,0.00,,,0.00,weatherlink.com 1.10,2013-09-20 05:39:00,
2013-09-20 01:54:00,60.2,54.0,30.05,West,279,3.0,5.0,80,0.00,,,0.00,weatherlink.com 1.10,2013-09-20 05:54:00,
2013-09-20 02:09:00,60.1,54.0,30.06,West,279,0.0,4.0,80,0.00,,,0.00,weatherlink.com 1.10,2013-09-20 06:09:00,
2013-09-20 02:24:00,60.4,54.0,30.05,WNW,289,5.0,7.0,79,0.00,,,0.00,weatherlink.com 1.10,2013-09-20 06:24:00,
2013-09-20 02:39:00,60.3,54.0,30.05,WNW,292,3.0,7.0,79,0.00,,,0.00,weatherlink.com 1.10,2013-09-20 06:39:00,
2013-09-20 02:54:00,59.7,54.0,30.05,WNW,292,4.0,5.0,81,0.00,,,0.00,weatherlink.com 1.10,2013-09-20 06:54:00,
2013-09-20 03:09:00,59.2,53.0,30.05,WNW,292,4.0,5.0,81,0.00,,,0.00,weatherlink.com 1.10,2013-09-20 07:09:00,
2013-09-20 03:24:00,58.8,53.0,30.05,WNW,292,3.0,6.0,82,0.00,,,0.00,weatherlink.com 1.10,2013-09-20 07:24:00,
2013-09-20 03:39:00,58.6,54.0,30.05,WNW,292,2.0,4.0,83,0.00,,,0.00,weatherlink.com 1.10,2013-09-20 07:39:00,
2013-09-20 03:54:00,58.4,53.0,30.05,WNW,292,4.0,5.0,83,0.00,,,0.00,weatherlink.com 1.10,2013-09-20 07:54:00,
2013-09-20 04:09:00,58.5,53.0,30.05,WNW,292,3.0,5.0,83,0.00,,,0.00,weatherlink.com 1.10,2013-09-20 08:09:00,
2013-09-20 04:24:00,58.2,53.0,30.06,WNW,293,3.0,5.0,83,0.00,,,0.00,weatherlink.com 1.10,2013-09-20 08:24:00,
2013-09-20 04:39:00,58.2,53.0,30.05,WNW,293,4.0,6.0,83,0.00,,,0.00,weatherlink.com 1.10,2013-09-20 08:39:00,
2013-09-20 04:54:00,58.1,53.0,30.05,WNW,293,3.0,5.0,83,0.00,,,0.00,weatherlink.com 1.10,2013-09-20 08:54:00,
2013-09-20 05:09:00,57.4,53.0,30.04,WNW,292,0.0,5.0,84,0.00,,,0.00,weatherlink.com 1.10,2013-09-20 09:09:00,
2013-09-20 05:24:00,56.9,52.0,30.05,WNW,291,1.0,4.0,84,0.00,,,0.00,weatherlink.com 1.10,2013-09-20 09:24:00,
2013-09-20 05:39:00,56.4,52.0,30.05,WNW,291,0.0,4.0,85,0.00,,,0.00,weatherlink.com 1.10,2013-09-20 09:39:00,
2013-09-20 05:54:00,56.1,52.0,30.05,WNW,291,3.0,4.0,86,0.00,,,0.00,weatherlink.com 1.10,2013-09-20 09:54:00,
2013-09-20 06:09:00,56.1,52.0,30.06,WNW,291,2.0,4.0,86,0.00,,,0.00,weatherlink.com 1.10,2013-09-20 10:09:00,
2013-09-20 06:24:00,56.7,53.0,30.06,WNW,291,3.0,5.0,86,0.00,,,0.00,weatherlink.com 1.10,2013-09-20 10:24:00,
2013-09-20 06:39:00,57.3,53.0,30.07,WNW,291,3.0,6.0,84,0.00,,,0.00,weatherlink.com 1.10,2013-09-20 10:39:00,
2013-09-20 06:54:00,57.6,53.0,30.07,WNW,296,0.0,3.0,84,0.00,,,0.00,weatherlink.com 1.10,2013-09-20 10:54:00,
2013-09-20 07:09:00,58.2,53.0,30.07,WNW,296,1.0,3.0,84,0.00,,,0.00,weatherlink.com 1.10,2013-09-20 11:09:00,
2013-09-20 07:24:00,58.2,53.0,30.08,WNW,296,4.0,5.0,83,0.00,,,0.00,weatherlink.com 1.10,2013-09-20 11:24:00,
2013-09-20 07:39:00,58.5,53.0,30.08,WNW,298,0.0,5.0,82,0.00,,,0.00,weatherlink.com 1.10,2013-09-20 11:39:00,
2013-09-20 07:54:00,59.5,53.0,30.08,NNW,339,7.0,8.0,80,0.00,,,0.00,weatherlink.com 1.10,2013-09-20 11:54:00,
2013-09-20 08:09:00,60.3,54.0,30.08,NW,305,0.0,7.0,79,0.00,,,0.00,weatherlink.com 1.10,2013-09-20 12:09:00,
2013-09-20 08:24:00,60.8,54.0,30.07,WNW,293,4.0,7.0,78,0.00,,,0.00,weatherlink.com 1.10,2013-09-20 12:24:00,
2013-09-20 08:39:00,61.6,54.0,30.07,WNW,296,0.0,6.0,77,0.00,,,0.00,weatherlink.com 1.10,2013-09-20 12:39:00,
2013-09-20 08:54:00,62.7,55.0,30.08,WNW,296,0.0,6.0,75,0.00,,,0.00,weatherlink.com 1.10,2013-09-20 12:54:00,
2013-09-20 09:09:00,64.6,55.0,30.08,NNW,340,1.0,4.0,72,0.00,,,0.00,weatherlink.com 1.10,2013-09-20 13:09:00,
2013-09-20 09:24:00,66.6,56.0,30.09,NE,38,3.0,6.0,68,0.00,,,0.00,weatherlink.com 1.10,2013-09-20 13:24:00,
2013-09-20 09:39:00,67.1,56.0,30.09,NE,40,1.0,4.0,68,0.00,,,0.00,weatherlink.com 1.10,2013-09-20 13:39:00,
2013-09-20 09:54:00,68.6,56.0,30.09,NE,44,0.0,2.0,65,0.00,,,0.00,weatherlink.com 1.10,2013-09-20 13:54:00,
2013-09-20 10:09:00,69.9,57.0,30.08,NE,44,0.0,0.0,63,0.00,,,0.00,weatherlink.com 1.10,2013-09-20 14:09:00,
2013-09-20 10:24:00,72.1,56.0,30.09,NE,44,0.0,0.0,58,0.00,,,0.00,weatherlink.com 1.10,2013-09-20 14:24:00,
2013-09-20 10:39:00,73.9,57.0,30.09,NE,55,0.0,3.0,56,0.00,,,0.00,weatherlink.com 1.10,2013-09-20 14:39:00,
2013-09-20 10:55:00,74.8,57.0,30.09,East,95,1.0,5.0,54,0.00,,,0.00,weatherlink.com 1.10,2013-09-20 14:55:00,
2013-09-20 11:10:00,74.4,57.0,30.09,SE,131,1.0,8.0,55,0.00,,,0.00,weatherlink.com 1.10,2013-09-20 15:10:00,
2013-09-20 11:25:00,75.2,56.0,30.09,ESE,111,2.0,7.0,52,0.00,,,0.00,weatherlink.com 1.10,2013-09-20 15:25:00,
2013-09-20 11:40:00,75.0,57.0,30.09,SE,142,7.0,7.0,53,0.00,,,0.00,weatherlink.com 1.10,2013-09-20 15:40:00,
2013-09-20 11:55:00,74.8,56.0,30.08,SSE,150,5.0,8.0,53,0.00,,,0.00,weatherlink.com 1.10,2013-09-20 15:55:00,
2013-09-20 12:10:00,74.7,57.0,30.08,SSE,155,2.0,8.0,54,0.00,,,0.00,weatherlink.com 1.10,2013-09-20 16:10:00,
2013-09-20 12:25:00,74.6,57.0,30.07,SSE,155,2.0,8.0,54,0.00,,,0.00,weatherlink.com 1.10,2013-09-20 16:25:00,
2013-09-20 12:40:00,74.5,56.0,30.07,SSE,148,5.0,8.0,53,0.00,,,0.00,weatherlink.com 1.10,2013-09-20 16:40:00,
2013-09-20 12:55:00,74.1,56.0,30.06,SSE,150,2.0,8.0,53,0.00,,,0.00,weatherlink.com 1.10,2013-09-20 16:55:00,
2013-09-20 13:10:00,73.1,56.0,30.07,SE,146,5.0,9.0,56,0.00,,,0.00,weatherlink.com 1.10,2013-09-20 17:10:00,
2013-09-20 13:25:00,72.3,58.0,30.06,SE,138,8.0,10.0,60,0.00,,,0.00,weatherlink.com 1.10,2013-09-20 17:25:00,
2013-09-20 13:40:00,71.3,57.0,30.05,SSE,148,1.0,10.0,62,0.00,,,0.00,weatherlink.com 1.10,2013-09-20 17:40:00,
2013-09-20 13:55:00,72.0,58.0,30.05,ESE,118,2.0,9.0,61,0.00,,,0.00,weatherlink.com 1.10,2013-09-20 17:55:00,
2013-09-20 14:10:00,72.9,58.0,30.05,SE,137,5.0,7.0,59,0.00,,,0.00,weatherlink.com 1.10,2013-09-20 18:10:00,
2013-09-20 14:25:00,72.8,57.0,30.04,SSE,152,4.0,8.0,59,0.00,,,0.00,weatherlink.com 1.10,2013-09-20 18:25:00,
2013-09-20 14:40:00,72.5,58.0,30.04,SSE,154,1.0,8.0,60,0.00,,,0.00,weatherlink.com 1.10,2013-09-20 18:40:00,
2013-09-20 14:55:00,72.2,56.0,30.03,SE,126,3.0,10.0,58,0.00,,,0.00,weatherlink.com 1.10,2013-09-20 18:55:00,
2013-09-20 15:10:00,71.7,56.0,30.02,ESE,123,3.0,8.0,59,0.00,,,0.00,weatherlink.com 1.10,2013-09-20 19:10:00,
2013-09-20 15:25:00,72.0,56.0,30.02,ESE,112,8.0,10.0,57,0.00,,,0.00,weatherlink.com 1.10,2013-09-20 19:25:00,
2013-09-20 15:40:00,71.5,55.0,30.02,SE,137,2.0,9.0,57,0.00,,,0.00,weatherlink.com 1.10,2013-09-20 19:40:00,
2013-09-20 15:55:00,71.4,55.0,30.02,ESE,121,2.0,10.0,56,0.00,,,0.00,weatherlink.com 1.10,2013-09-20 19:55:00,
2013-09-20 16:10:00,71.6,56.0,30.02,ESE,116,0.0,10.0,59,0.00,,,0.00,weatherlink.com 1.10,2013-09-20 20:10:00,
2013-09-20 16:25:00,71.1,57.0,30.02,SE,126,0.0,9.0,61,0.00,,,0.00,weatherlink.com 1.10,2013-09-20 20:25:00,
2013-09-20 16:40:00,71.5,57.0,30.02,ESE,121,9.0,9.0,60,0.00,,,0.00,weatherlink.com 1.10,2013-09-20 20:40:00,
2013-09-20 16:55:00,71.2,56.0,30.01,SE,124,2.0,8.0,60,0.00,,,0.00,weatherlink.com 1.10,2013-09-20 20:55:00,
2013-09-20 17:10:00,71.7,56.0,30.01,SE,135,0.0,6.0,59,0.00,,,0.00,weatherlink.com 1.10,2013-09-20 21:10:00,
2013-09-20 17:25:00,71.6,56.0,30.01,SE,136,3.0,8.0,59,0.00,,,0.00,weatherlink.com 1.10,2013-09-20 21:25:00,
2013-09-20 17:40:00,70.2,56.0,30.01,ESE,123,2.0,9.0,62,0.00,,,0.00,weatherlink.com 1.10,2013-09-20 21:40:00,
2013-09-20 17:55:00,69.3,57.0,30.01,SE,126,5.0,9.0,65,0.00,,,0.00,weatherlink.com 1.10,2013-09-20 21:55:00,
2013-09-20 18:10:00,68.2,58.0,30.02,ESE,108,5.0,8.0,69,0.00,,,0.00,weatherlink.com 1.10,2013-09-20 22:10:00,
2013-09-20 18:25:00,67.7,58.0,30.02,ESE,121,3.0,5.0,71,0.00,,,0.00,weatherlink.com 1.10,2013-09-20 22:25:00,
2013-09-20 18:40:00,67.3,58.0,30.02,SE,124,4.0,8.0,72,0.00,,,0.00,weatherlink.com 1.10,2013-09-20 22:40:00,
2013-09-20 18:55:00,66.6,58.0,30.02,SE,124,0.0,4.0,74,0.00,,,0.00,weatherlink.com 1.10,2013-09-20 22:55:00,
2013-09-20 19:10:00,66.2,58.0,30.02,SE,124,0.0,7.0,75,0.00,,,0.00,weatherlink.com 1.10,2013-09-20 23:10:00,
2013-09-20 19:25:00,65.9,59.0,30.02,SE,124,0.0,3.0,77,0.00,,,0.00,weatherlink.com 1.10,2013-09-20 23:25:00,
2013-09-20 19:40:00,65.9,59.0,30.03,SE,124,0.0,0.0,77,0.00,,,0.00,weatherlink.com 1.10,2013-09-20 23:40:00,
2013-09-20 19:55:00,66.0,59.0,30.03,SE,124,0.0,0.0,78,0.00,,,0.00,weatherlink.com 1.10,2013-09-20 23:55:00,
2013-09-20 20:10:00,66.2,59.0,30.04,SE,124,0.0,0.0,77,0.00,,,0.00,weatherlink.com 1.10,2013-09-21 00:10:00,
2013-09-20 20:25:00,66.4,59.0,30.04,SE,128,0.0,3.0,76,0.00,,,0.00,weatherlink.com 1.10,2013-09-21 00:25:00,
2013-09-20 20:40:00,66.8,58.0,30.04,WSW,247,0.0,5.0,74,0.00,,,0.00,weatherlink.com 1.10,2013-09-21 00:40:00,
2013-09-20 21:10:00,66.3,58.0,30.04,West,272,0.0,4.0,75,0.00,,,0.00,weatherlink.com 1.10,2013-09-21 01:10:00,
2013-09-20 21:25:00,65.7,58.0,30.04,West,274,0.0,2.0,76,0.00,,,0.00,weatherlink.com 1.10,2013-09-21 01:25:00,
2013-09-20 21:40:00,65.4,58.0,30.04,West,259,0.0,5.0,77,0.00,,,0.00,weatherlink.com 1.10,2013-09-21 01:40:00,
2013-09-20 21:55:00,65.1,58.0,30.04,West,268,2.0,6.0,79,0.00,,,0.00,weatherlink.com 1.10,2013-09-21 01:55:00,
2013-09-20 22:10:00,64.8,58.0,30.04,WSW,252,0.0,7.0,79,0.00,,,0.00,weatherlink.com 1.10,2013-09-21 02:10:00,
2013-09-20 22:25:00,64.1,58.0,30.04,WSW,248,1.0,6.0,81,0.00,,,0.00,weatherlink.com 1.10,2013-09-21 02:25:00,
2013-09-20 22:40:00,63.7,58.0,30.03,WNW,282,1.0,7.0,81,0.00,,,0.00,weatherlink.com 1.10,2013-09-21 02:40:00,
2013-09-20 22:55:00,63.2,58.0,30.03,West,263,0.0,4.0,82,0.00,,,0.00,weatherlink.com 1.10,2013-09-21 02:55:00,
2013-09-20 23:10:00,62.8,58.0,30.02,West,262,0.0,4.0,83,0.00,,,0.00,weatherlink.com 1.10,2013-09-21 03:10:00,
2013-09-20 23:25:00,62.5,58.0,30.02,WSW,255,1.0,4.0,84,0.00,,,0.00,weatherlink.com 1.10,2013-09-21 03:25:00,
2013-09-20 23:40:00,62.1,58.0,30.03,West,274,0.0,5.0,85,0.00,,,0.00,weatherlink.com 1.10,2013-09-21 03:40:00,
2013-09-20 23:55:00,61.8,58.0,30.02,WNW,287,6.0,8.0,86,0.00,,,0.00,weatherlink.com 1.10,2013-09-21 03:55:00,